Terminal Aerodrome Forecast
Issued by NWS

Home | Current Version | Previous Version | Text Only | Print | Product List | Glossary On
Versions: 1 2 3 4 5 6 7 8 9 10 11 12 13 14 15 16 17 18 19 20 21 22 23
518
FTUS42 TJSJ 212340
TAFKPK
TAF
TKPK 212340Z 2200/2224 32010KT P6SM VCSH FEW020
     FM221800 36010KT P6SM FEW020
      AMD NOT SKED 2202/2211=

USA.gov is the U.S. government's official web portal to all federal, state and local government web resources and services.